createdAt,value
2023-05-19T00:00:39.002Z,70.03
2023-05-19T00:03:33.951Z,70.01
2023-05-19T00:06:27.268Z,70.26
2023-05-19T00:09:20.352Z,70.43
2023-05-19T00:12:14.790Z,70.42
2023-05-19T00:15:09.014Z,70.54
2023-05-19T00:18:01.068Z,70.49
2023-05-19T00:20:37.685Z,70.61
2023-05-19T00:23:29.743Z,70.54
2023-05-19T00:26:22.670Z,70.55
2023-05-19T00:29:18.417Z,70.63
2023-05-19T00:32:10.396Z,70.63
2023-05-19T00:35:02.479Z,70.67
2023-05-19T00:37:44.009Z,70.80
2023-05-19T00:40:37.155Z,71.14
2023-05-19T00:43:30.161Z,71.13
2023-05-19T00:46:23.048Z,71.06
2023-05-19T00:49:15.156Z,71.00
2023-05-19T00:52:08.889Z,71.16
2023-05-19T00:54:44.547Z,71.07
2023-05-19T00:57:28.089Z,70.97
2023-05-19T01:00:20.472Z,70.97
2023-05-19T01:03:12.828Z,70.86
2023-05-19T01:06:05.955Z,71.07
2023-05-19T01:08:58.497Z,71.13
2023-05-19T01:11:50.679Z,71.07
2023-05-19T01:14:43.058Z,70.87
2023-05-19T01:17:42.359Z,71.00
2023-05-19T01:20:40.353Z,71.12
2023-05-19T01:23:29.210Z,71.13
2023-05-19T01:26:39.017Z,71.16
2023-05-19T01:29:52.832Z,71.21
2023-05-19T01:32:46.455Z,71.20
2023-05-19T01:35:40.973Z,70.99
2023-05-19T01:38:34.936Z,70.99
2023-05-19T01:41:29.539Z,71.16
2023-05-19T01:44:23.204Z,71.05
2023-05-19T01:46:58.071Z,70.83
2023-05-19T01:49:41.464Z,70.77
2023-05-19T01:52:33.778Z,70.88
2023-05-19T01:55:26.406Z,71.27
2023-05-19T01:58:23.739Z,71.20
2023-05-19T02:01:30.920Z,71.16
2023-05-19T02:04:39.929Z,71.27
2023-05-19T02:07:40.599Z,71.04
2023-05-19T02:10:34.482Z,71.31
2023-05-19T02:13:31.179Z,71.46
2023-05-19T02:16:26.495Z,71.44
2023-05-19T02:19:27.416Z,71.37
2023-05-19T02:22:19.440Z,71.56
2023-05-19T02:25:12.602Z,71.46
2023-05-19T02:27:59.474Z,71.53
2023-05-19T02:30:35.202Z,71.66
2023-05-19T02:33:27.533Z,71.48
2023-05-19T02:36:19.613Z,71.49
2023-05-19T02:39:12.192Z,71.73
2023-05-19T02:41:46.720Z,71.71
2023-05-19T02:44:38.930Z,71.54
2023-05-19T02:47:31.033Z,71.65
2023-05-19T02:50:23.063Z,71.61
2023-05-19T02:53:11.240Z,71.60
2023-05-19T02:56:03.596Z,71.63
2023-05-19T02:58:56.204Z,71.64
2023-05-19T03:01:48.551Z,71.54
2023-05-19T03:04:42.089Z,71.93
2023-05-19T03:07:34.086Z,71.79
2023-05-19T03:10:26.208Z,71.88
2023-05-19T03:13:18.300Z,71.97
2023-05-19T03:16:10.238Z,72.04
2023-05-19T03:19:02.298Z,71.98
2023-05-19T03:21:56.396Z,71.99
2023-05-19T03:24:51.056Z,71.95
2023-05-19T03:27:25.821Z,71.97
2023-05-19T03:30:18.161Z,72.07
2023-05-19T03:33:10.363Z,72.02
2023-05-19T03:36:04.084Z,71.92
2023-05-19T03:38:56.100Z,71.84
2023-05-19T03:41:48.113Z,71.88
2023-05-19T03:44:40.219Z,71.69
2023-05-19T03:47:32.732Z,71.69
2023-05-19T03:50:25.001Z,71.45
2023-05-19T03:53:17.084Z,71.48
2023-05-19T03:55:56.739Z,71.27
2023-05-19T03:58:49.748Z,71.20
2023-05-19T04:01:41.728Z,71.16
2023-05-19T04:04:33.862Z,71.11
2023-05-19T04:07:26.218Z,70.94
2023-05-19T04:10:09.062Z,70.85
2023-05-19T04:13:01.307Z,70.81
2023-05-19T04:15:53.474Z,70.52
2023-05-19T04:18:46.462Z,70.37
2023-05-19T04:21:38.649Z,70.50
2023-05-19T04:24:30.735Z,70.60
2023-05-19T04:27:23.040Z,70.47
2023-05-19T04:30:22.084Z,70.77
2023-05-19T04:33:14.202Z,70.79
2023-05-19T04:36:08.609Z,70.62
2023-05-19T04:39:02.508Z,70.73
2023-05-19T04:41:54.722Z,70.62
2023-05-19T04:44:46.626Z,70.47
2023-05-19T04:47:38.800Z,70.29
2023-05-19T04:50:33.165Z,70.24
2023-05-19T04:53:26.155Z,70.10
2023-05-19T04:56:18.218Z,70.08
2023-05-19T04:59:10.880Z,70.15
2023-05-19T05:02:04.268Z,70.12
2023-05-19T05:04:42.509Z,70.07
2023-05-19T05:07:34.577Z,70.13
2023-05-19T05:10:11.696Z,70.20
2023-05-19T05:12:47.525Z,70.26
2023-05-19T05:15:40.371Z,70.15
2023-05-19T05:18:33.283Z,70.16
2023-05-19T05:21:09.734Z,70.18
2023-05-19T05:24:02.814Z,70.05
2023-05-19T05:26:55.547Z,70.05
2023-05-19T05:29:47.562Z,69.66
2023-05-19T05:32:39.860Z,69.97
2023-05-19T05:35:23.549Z,70.12
2023-05-19T05:38:15.589Z,69.72
2023-05-19T05:41:07.711Z,69.58
2023-05-19T05:43:50.798Z,69.66
2023-05-19T05:46:43.749Z,69.79
2023-05-19T05:49:38.156Z,69.77
2023-05-19T05:52:22.731Z,69.58
2023-05-19T05:55:18.395Z,69.71
2023-05-19T05:58:11.347Z,69.24
2023-05-19T06:01:03.420Z,69.21
2023-05-19T06:03:55.443Z,69.13
2023-05-19T06:06:47.419Z,69.02
2023-05-19T06:09:30.374Z,69.07
2023-05-19T06:12:02.481Z,69.02
2023-05-19T06:14:54.535Z,68.99
2023-05-19T06:17:46.529Z,68.86
2023-05-19T06:20:23.891Z,68.91
2023-05-19T06:23:15.951Z,68.68
2023-05-19T06:26:04.265Z,68.63
2023-05-19T06:28:56.257Z,68.41
2023-05-19T06:31:48.494Z,68.37
2023-05-19T06:34:40.699Z,68.32
2023-05-19T06:37:32.821Z,68.31
2023-05-19T06:40:24.961Z,68.24
2023-05-19T06:43:17.098Z,68.25
2023-05-19T06:46:09.096Z,68.40
2023-05-19T06:49:01.125Z,68.32
2023-05-19T06:51:53.515Z,67.72
2023-05-19T06:54:45.555Z,67.51
2023-05-19T06:57:37.579Z,66.80
2023-05-19T07:00:29.908Z,66.87
2023-05-19T07:03:10.572Z,66.78
2023-05-19T07:06:03.194Z,66.45
2023-05-19T07:08:56.682Z,65.69
2023-05-19T07:11:29.168Z,65.42
2023-05-19T07:14:21.606Z,65.09
2023-05-19T07:17:13.803Z,64.80
2023-05-19T07:20:08.001Z,64.82
2023-05-19T07:23:00.319Z,64.88
2023-05-19T07:25:48.521Z,64.46
2023-05-19T07:28:41.727Z,64.44
2023-05-19T07:31:22.928Z,64.13
2023-05-19T07:34:14.955Z,64.35
2023-05-19T07:37:07.142Z,64.63
2023-05-19T07:39:59.216Z,64.87
2023-05-19T07:42:51.751Z,64.79
2023-05-19T07:45:43.922Z,65.21
2023-05-19T07:48:36.018Z,64.93
2023-05-19T07:51:28.153Z,64.71
2023-05-19T07:54:20.178Z,64.66
2023-05-19T07:57:12.278Z,64.63
2023-05-19T08:00:07.797Z,64.75
2023-05-19T08:03:00.034Z,64.83
2023-05-19T08:05:52.198Z,65.08
2023-05-19T08:08:44.300Z,65.05
2023-05-19T08:11:36.964Z,65.33
2023-05-19T08:14:28.960Z,65.35
2023-05-19T08:17:06.214Z,65.28
2023-05-19T08:19:41.391Z,64.92
2023-05-19T08:22:33.422Z,64.84
2023-05-19T08:25:25.570Z,65.10
2023-05-19T08:28:00.190Z,64.88
2023-05-19T08:30:53.324Z,64.25
2023-05-19T08:33:36.974Z,64.46
2023-05-19T08:36:29.444Z,64.88
2023-05-19T08:39:26.588Z,65.00
2023-05-19T08:42:18.590Z,64.83
2023-05-19T08:45:11.715Z,64.46
2023-05-19T08:48:04.142Z,64.04
2023-05-19T08:50:49.511Z,64.26
2023-05-19T08:53:37.810Z,64.28
2023-05-19T08:56:31.230Z,64.13
2023-05-19T08:59:24.328Z,64.34
2023-05-19T09:02:17.434Z,64.09
2023-05-19T09:05:10.722Z,64.33
2023-05-19T09:08:04.887Z,64.16
2023-05-19T09:10:56.933Z,64.19
2023-05-19T09:13:49.543Z,64.05
2023-05-19T09:16:24.081Z,63.70
2023-05-19T09:19:17.548Z,63.83
2023-05-19T09:22:09.889Z,63.65
2023-05-19T09:25:01.943Z,63.77
2023-05-19T09:27:55.315Z,63.63
2023-05-19T09:30:47.319Z,63.25
2023-05-19T09:33:29.961Z,62.85
2023-05-19T09:36:22.033Z,62.88
2023-05-19T09:39:17.844Z,62.77
2023-05-19T09:41:56.194Z,62.97
2023-05-19T09:44:48.895Z,63.18
2023-05-19T09:47:43.914Z,63.08
2023-05-19T09:50:36.446Z,63.19
2023-05-19T09:53:30.411Z,63.10
2023-05-19T09:56:06.038Z,62.86
2023-05-19T09:58:58.578Z,62.98
2023-05-19T10:01:51.406Z,63.18
2023-05-19T10:04:29.762Z,63.19
2023-05-19T10:07:08.405Z,62.78
2023-05-19T10:10:01.221Z,62.66
2023-05-19T10:12:53.503Z,62.53
2023-05-19T10:18:32.288Z,62.94
2023-05-19T10:21:24.222Z,62.76
2023-05-19T10:24:16.342Z,62.60
2023-05-19T10:27:12.367Z,62.24
2023-05-19T10:30:11.504Z,62.53
2023-05-19T10:33:08.018Z,62.55
2023-05-19T10:36:23.123Z,62.41
2023-05-19T10:39:23.038Z,62.23
2023-05-19T10:42:21.587Z,62.49
2023-05-19T10:45:19.019Z,62.60
2023-05-19T10:48:15.077Z,62.41
2023-05-19T10:51:12.171Z,62.30
2023-05-19T10:54:12.062Z,62.36
2023-05-19T10:57:05.136Z,62.38
2023-05-19T10:59:58.052Z,62.21
2023-05-19T11:02:46.049Z,61.80
2023-05-19T11:05:28.927Z,61.60
2023-05-19T11:08:34.443Z,61.59
2023-05-19T11:11:26.803Z,61.49
2023-05-19T11:14:22.906Z,61.13
2023-05-19T11:17:17.289Z,60.75
2023-05-19T11:20:22.656Z,61.16
2023-05-19T11:23:18.764Z,60.96
2023-05-19T11:26:10.906Z,60.42
2023-05-19T11:29:07.341Z,60.73
2023-05-19T11:32:00.428Z,60.70
2023-05-19T11:34:53.160Z,60.23
2023-05-19T11:37:46.876Z,59.93
2023-05-19T11:40:26.631Z,59.80
2023-05-19T11:43:18.655Z,59.54
2023-05-19T11:46:12.424Z,59.10
2023-05-19T11:49:05.709Z,58.62
2023-05-19T11:51:58.430Z,58.44
2023-05-19T11:54:51.126Z,58.92
2023-05-19T11:57:56.076Z,58.99
2023-05-19T12:00:55.320Z,58.77
2023-05-19T12:03:47.631Z,58.83
2023-05-19T12:06:40.063Z,58.93
2023-05-19T12:09:32.339Z,59.09
2023-05-19T12:12:25.614Z,58.85
2023-05-19T12:15:20.847Z,59.14
2023-05-19T12:18:11.391Z,58.93
2023-05-19T12:21:03.646Z,58.41
2023-05-19T12:23:56.297Z,58.54
2023-05-19T12:26:50.634Z,58.69
2023-05-19T12:29:32.657Z,58.58
2023-05-19T12:32:27.641Z,58.79
2023-05-19T12:35:20.438Z,59.33
2023-05-19T12:38:12.509Z,59.14
2023-05-19T12:41:05.396Z,59.53
2023-05-19T12:43:58.192Z,59.58
2023-05-19T12:46:54.594Z,59.42
2023-05-19T12:49:57.912Z,59.33
2023-05-19T12:52:52.164Z,59.23
2023-05-19T12:55:46.497Z,59.25
2023-05-19T12:58:39.684Z,59.37
2023-05-19T13:01:21.125Z,59.17
2023-05-19T13:04:13.385Z,59.61
2023-05-19T13:07:05.943Z,59.51
2023-05-19T13:09:57.905Z,59.31
2023-05-19T13:12:49.976Z,59.06
2023-05-19T13:15:44.577Z,59.23
2023-05-19T13:18:37.770Z,59.75
2023-05-19T13:21:20.612Z,59.84
2023-05-19T13:24:12.601Z,59.71
2023-05-19T13:27:05.635Z,59.60
2023-05-19T13:29:57.806Z,59.67
2023-05-19T13:32:49.748Z,59.53
2023-05-19T13:35:41.839Z,59.60
2023-05-19T13:38:33.941Z,60.02
2023-05-19T13:41:29.851Z,60.05
2023-05-19T13:44:21.932Z,59.81
2023-05-19T13:47:14.352Z,60.13
2023-05-19T13:50:07.663Z,60.29
2023-05-19T13:52:59.718Z,60.36
2023-05-19T13:55:52.980Z,60.20
2023-05-19T13:58:34.273Z,60.21
2023-05-19T14:01:26.462Z,59.90
2023-05-19T14:04:20.372Z,59.93
2023-05-19T14:07:12.459Z,59.93
2023-05-19T14:10:05.698Z,59.55
2023-05-19T14:16:00.694Z,60.23
2023-05-19T14:18:52.798Z,60.50
2023-05-19T14:21:44.831Z,60.46
2023-05-19T14:24:37.156Z,60.67
2023-05-19T14:27:29.262Z,60.72
2023-05-19T14:30:21.518Z,60.91
2023-05-19T14:33:13.601Z,60.51
2023-05-19T14:36:06.328Z,60.80
2023-05-19T14:38:58.388Z,61.11
2023-05-19T14:41:51.901Z,60.73
2023-05-19T14:44:30.708Z,61.06
2023-05-19T14:47:08.427Z,61.44
2023-05-19T14:50:00.646Z,61.51
2023-05-19T14:52:52.817Z,61.47
2023-05-19T14:55:44.947Z,61.61
2023-05-19T14:58:35.634Z,61.61
2023-05-19T15:01:27.746Z,61.76
2023-05-19T15:04:19.855Z,61.88
2023-05-19T15:07:11.990Z,62.04
2023-05-19T15:10:04.301Z,62.19
2023-05-19T15:12:57.578Z,62.00
2023-05-19T15:15:45.684Z,61.92
2023-05-19T15:18:38.057Z,62.13
2023-05-19T15:21:30.223Z,62.12
2023-05-19T15:24:22.571Z,61.70
2023-05-19T15:27:15.010Z,61.95
2023-05-19T15:30:08.985Z,62.02
2023-05-19T15:33:01.094Z,62.50
2023-05-19T15:35:53.346Z,62.89
2023-05-19T15:38:45.369Z,63.05
2023-05-19T15:41:37.467Z,63.04
2023-05-19T15:44:30.018Z,63.31
2023-05-19T15:47:22.053Z,63.55
2023-05-19T15:50:14.995Z,63.45
2023-05-19T15:53:09.098Z,63.79
2023-05-19T15:56:02.193Z,63.70
2023-05-19T15:58:55.442Z,63.80
2023-05-19T16:01:30.341Z,63.98
2023-05-19T16:04:22.531Z,64.07
2023-05-19T16:07:04.927Z,64.03
2023-05-19T16:09:56.998Z,64.24
2023-05-19T16:12:49.029Z,64.56
2023-05-19T16:15:41.093Z,64.73
2023-05-19T16:18:33.256Z,64.63
2023-05-19T16:21:25.440Z,64.73
2023-05-19T16:24:17.581Z,64.82
2023-05-19T16:27:09.623Z,64.99
2023-05-19T16:29:53.149Z,65.01
2023-05-19T16:32:27.622Z,65.18
2023-05-19T16:35:20.063Z,65.30
2023-05-19T16:38:12.052Z,65.35
2023-05-19T16:41:05.242Z,65.40
2023-05-19T16:43:57.317Z,65.47
2023-05-19T16:46:49.329Z,65.69
2023-05-19T16:49:41.462Z,65.94
2023-05-19T16:52:33.503Z,66.00
2023-05-19T16:55:26.672Z,66.13
2023-05-19T16:58:18.705Z,66.23
2023-05-19T17:01:12.086Z,66.38
2023-05-19T17:04:04.456Z,66.50
2023-05-19T17:06:56.758Z,66.49
2023-05-19T17:09:49.212Z,66.64
2023-05-19T17:12:41.544Z,66.82
2023-05-19T17:15:34.458Z,66.88
2023-05-19T17:18:26.509Z,67.02
2023-05-19T17:21:18.435Z,67.01
2023-05-19T17:24:11.493Z,67.26
2023-05-19T17:27:03.577Z,67.33
2023-05-19T17:29:55.601Z,67.55
2023-05-19T17:32:47.722Z,67.49
2023-05-19T17:35:41.116Z,67.48
2023-05-19T17:38:33.210Z,67.51
2023-05-19T17:41:25.416Z,67.64
2023-05-19T17:44:17.434Z,67.59
2023-05-19T17:47:09.459Z,67.62
2023-05-19T17:50:01.562Z,67.69
2023-05-19T17:52:54.484Z,67.88
2023-05-19T17:55:51.060Z,68.00
2023-05-19T17:58:46.573Z,68.01
2023-05-19T18:01:40.574Z,68.15
2023-05-19T18:04:33.963Z,68.25
2023-05-19T18:07:28.524Z,68.34
2023-05-19T18:10:21.356Z,68.49
2023-05-19T18:13:15.008Z,68.39
2023-05-19T18:16:07.409Z,68.53
2023-05-19T18:18:59.598Z,68.57
2023-05-19T18:21:51.677Z,68.62
2023-05-19T18:24:23.593Z,68.65
2023-05-19T18:27:39.799Z,68.86
2023-05-19T18:30:32.191Z,69.00
2023-05-19T18:33:25.901Z,69.03
2023-05-19T18:36:19.150Z,69.05
2023-05-19T18:39:11.188Z,69.04
2023-05-19T18:42:03.345Z,69.08
2023-05-19T18:44:38.336Z,69.01
2023-05-19T18:47:30.466Z,69.26
2023-05-19T18:50:22.811Z,69.28
2023-05-19T18:53:15.007Z,69.30
2023-05-19T18:56:07.608Z,69.40
2023-05-19T18:58:39.648Z,69.47
2023-05-19T19:01:31.873Z,69.50
2023-05-19T19:04:24.501Z,69.70
2023-05-19T19:07:18.287Z,69.82
2023-05-19T19:10:12.537Z,69.97
2023-05-19T19:13:06.147Z,69.91
2023-05-19T19:15:42.936Z,69.76
2023-05-19T19:18:37.370Z,69.86
2023-05-19T19:21:31.836Z,70.01
2023-05-19T19:24:13.584Z,69.93
2023-05-19T19:27:06.475Z,70.03
2023-05-19T19:29:59.437Z,70.22
2023-05-19T19:32:51.655Z,70.11
2023-05-19T19:35:45.021Z,70.22
2023-05-19T19:38:37.081Z,70.22
2023-05-19T19:41:29.809Z,70.28
2023-05-19T19:44:12.047Z,70.31
2023-05-19T19:47:06.082Z,70.26
2023-05-19T19:49:58.939Z,70.44
2023-05-19T19:52:50.947Z,70.43
2023-05-19T19:55:43.022Z,70.57
2023-05-19T19:58:35.107Z,70.61
2023-05-19T20:01:28.127Z,70.81
2023-05-19T20:04:20.367Z,70.93
2023-05-19T20:07:12.511Z,71.06
2023-05-19T20:10:04.811Z,71.12
2023-05-19T20:12:58.795Z,71.13
2023-05-19T20:15:51.085Z,71.19
2023-05-19T20:18:43.271Z,71.33
2023-05-19T20:21:35.289Z,71.40
2023-05-19T20:24:27.350Z,71.36
2023-05-19T20:27:09.818Z,71.49
2023-05-19T20:29:52.579Z,71.47
2023-05-19T20:32:46.409Z,71.54
2023-05-19T20:35:38.544Z,71.61
2023-05-19T20:38:30.612Z,71.64
2023-05-19T20:41:22.619Z,71.71
2023-05-19T20:44:14.705Z,71.59
2023-05-19T20:47:08.757Z,71.54
2023-05-19T20:50:00.839Z,71.58
2023-05-19T20:52:53.101Z,71.74
2023-05-19T20:55:46.835Z,71.64
2023-05-19T20:58:38.990Z,71.80
2023-05-19T21:01:31.273Z,71.84
2023-05-19T21:04:23.465Z,71.77
2023-05-19T21:07:15.633Z,71.73
2023-05-19T21:10:09.468Z,71.78
2023-05-19T21:13:01.511Z,71.91
2023-05-19T21:15:53.622Z,72.00
2023-05-19T21:18:45.798Z,71.97
2023-05-19T21:21:41.780Z,71.93
2023-05-19T21:24:33.906Z,71.95
2023-05-19T21:27:26.079Z,71.91
2023-05-19T21:30:18.260Z,71.98
2023-05-19T21:33:11.604Z,71.99
2023-05-19T21:36:03.682Z,72.09
2023-05-19T21:38:55.799Z,72.09
2023-05-19T21:41:48.120Z,72.25
2023-05-19T21:44:40.169Z,72.16
2023-05-19T21:47:32.484Z,72.22
2023-05-19T21:50:24.601Z,72.28
2023-05-19T21:52:59.644Z,72.30
2023-05-19T21:55:34.291Z,72.29
2023-05-19T21:58:26.407Z,72.36
2023-05-19T22:01:18.914Z,72.41
2023-05-19T22:04:11.479Z,72.51
2023-05-19T22:07:03.657Z,72.64
2023-05-19T22:09:55.974Z,72.62
2023-05-19T22:12:48.069Z,72.68
2023-05-19T22:15:41.765Z,72.69
2023-05-19T22:18:33.879Z,72.79
2023-05-19T22:21:26.219Z,72.79
2023-05-19T22:24:18.949Z,72.92
2023-05-19T22:27:11.618Z,72.99
2023-05-19T22:30:03.458Z,73.04
2023-05-19T22:32:55.656Z,72.86
2023-05-19T22:35:48.124Z,72.90
2023-05-19T22:38:40.151Z,72.94
2023-05-19T22:41:32.431Z,73.03
2023-05-19T22:44:24.440Z,73.12
2023-05-19T22:46:59.238Z,72.99
2023-05-19T22:49:39.897Z,73.13
2023-05-19T22:52:31.930Z,73.20
2023-05-19T22:55:23.972Z,73.20
2023-05-19T22:58:16.097Z,73.23
2023-05-19T23:01:08.359Z,73.30
2023-05-19T23:04:00.533Z,73.29
2023-05-19T23:06:52.996Z,73.30
2023-05-19T23:09:34.930Z,73.33
2023-05-19T23:12:27.045Z,73.44
2023-05-19T23:15:19.356Z,73.55
2023-05-19T23:18:11.593Z,73.71
2023-05-19T23:21:03.662Z,73.80
2023-05-19T23:23:36.849Z,73.69
2023-05-19T23:26:28.950Z,73.76
2023-05-19T23:29:21.104Z,73.86
2023-05-19T23:32:13.155Z,73.99
2023-05-19T23:35:14.135Z,73.88
2023-05-19T23:37:46.124Z,73.91
2023-05-19T23:40:38.108Z,73.93
2023-05-19T23:43:15.155Z,73.85
2023-05-19T23:46:07.342Z,73.76
2023-05-19T23:48:59.378Z,73.70
2023-05-19T23:51:51.412Z,73.85
2023-05-19T23:54:43.514Z,73.78
2023-05-19T23:57:35.583Z,73.49
